createdAt,value
2023-03-11T00:07:27.479Z,-0.1
2023-03-11T00:11:27.163Z,-0.3
2023-03-11T00:13:27.069Z,-0.3
2023-03-11T00:15:26.957Z,-0.1
2023-03-11T00:17:30.313Z,-0.2
2023-03-11T00:19:30.191Z,-0.4
2023-03-11T00:22:31.772Z,-0.4
2023-03-11T00:24:31.621Z,-0.4
2023-03-11T00:26:31.532Z,-0.5
2023-03-11T00:28:34.121Z,-0.4
2023-03-11T00:30:34.902Z,-0.2
2023-03-11T00:32:34.700Z,-0.4
2023-03-11T00:34:34.576Z,-0.3
2023-03-11T00:38:34.341Z,-0.1
2023-03-11T00:40:34.218Z,0
2023-03-11T00:42:34.073Z,-0.2
2023-03-11T00:44:37.429Z,-0.2
2023-03-11T00:46:37.423Z,0
2023-03-11T00:58:40.138Z,-0.3
2023-03-11T01:00:39.989Z,-0.3
2023-03-11T01:02:39.863Z,-0.3
2023-03-11T01:04:39.820Z,-0.2
2023-03-11T01:06:45.645Z,-0.3
2023-03-11T01:10:40.382Z,-0.2
2023-03-11T01:12:42.782Z,-0.1
2023-03-11T01:14:42.689Z,-0.3
2023-03-11T01:16:42.526Z,-0.2
2023-03-11T01:17:44.194Z,-0.2
2023-03-11T01:19:44.099Z,-0.2
2023-03-11T01:23:43.871Z,-0.3
2023-03-11T01:25:47.273Z,-0.3
2023-03-11T01:27:47.104Z,-0.4
2023-03-11T01:29:47.023Z,-0.3
2023-03-11T01:31:46.887Z,-0.6
2023-03-11T01:33:46.706Z,-0.4
2023-03-11T01:35:46.713Z,-0.6
2023-03-11T01:37:46.510Z,-0.4
2023-03-11T01:39:49.876Z,-0.3
2023-03-11T01:53:52.501Z,-0.4
2023-03-11T01:59:52.141Z,-0.8
2023-03-11T02:01:52.075Z,-0.8
2023-03-11T02:03:51.915Z,-0.9
2023-03-11T02:05:51.781Z,-0.9
2023-03-11T02:07:55.159Z,-0.8
2023-03-11T02:09:55.087Z,-0.9
2023-03-11T02:11:54.931Z,-1
2023-03-11T02:13:57.363Z,-1
2023-03-11T02:15:57.261Z,-1
2023-03-11T02:17:57.107Z,-0.8
2023-03-11T02:19:59.502Z,-0.7
2023-03-11T02:21:59.424Z,-0.8
2023-03-11T02:23:59.304Z,-0.6
2023-03-11T02:26:01.672Z,-0.7
2023-03-11T02:28:01.540Z,-0.5
2023-03-11T02:30:01.447Z,-0.4
2023-03-11T02:32:03.845Z,-0.5
2023-03-11T02:34:03.752Z,-0.6
2023-03-11T02:36:03.660Z,-0.6
2023-03-11T02:38:06.034Z,-0.5
2023-03-11T02:48:07.959Z,-0.6
2023-03-11T02:50:10.394Z,-0.7
2023-03-11T02:52:10.216Z,-0.6
2023-03-11T02:54:10.094Z,-0.6
2023-03-11T02:58:12.425Z,-0.7
2023-03-11T03:00:12.283Z,-0.7
2023-03-11T03:02:14.719Z,-0.8
2023-03-11T03:04:14.667Z,-0.7
2023-03-11T03:06:14.468Z,-0.8
2023-03-11T03:10:16.753Z,-0.6
2023-03-11T03:12:16.646Z,-0.6
2023-03-11T03:18:24.051Z,-0.5
2023-03-11T03:20:23.899Z,-0.6
2023-03-11T03:22:23.756Z,-0.7
2023-03-11T03:24:26.191Z,-0.6
2023-03-11T03:26:26.032Z,-0.6
2023-03-11T03:34:28.095Z,-0.7
2023-03-11T03:36:30.524Z,-0.9
2023-03-11T03:38:30.420Z,-1
2023-03-11T03:40:30.262Z,-0.9
2023-03-11T03:42:32.692Z,-0.9
2023-03-11T03:44:32.597Z,-1.1
2023-03-11T03:46:32.449Z,-1.1
2023-03-11T03:48:34.900Z,-1
2023-03-11T03:50:34.770Z,-1.2
2023-03-11T03:52:34.639Z,-1.1
2023-03-11T03:54:37.042Z,-1.2
2023-03-11T03:56:36.945Z,-1.3
2023-03-11T03:58:36.806Z,-1.4
2023-03-11T04:00:39.254Z,-1.6
2023-03-11T04:02:39.238Z,-1.4
2023-03-11T04:04:38.988Z,-1.4
2023-03-11T04:06:41.426Z,-1.3
2023-03-11T04:08:41.308Z,-1.3
2023-03-11T04:10:41.168Z,-1.4
2023-03-11T04:12:43.589Z,-1.3
2023-03-11T04:14:43.485Z,-1.3
2023-03-11T04:20:45.586Z,-1.3
2023-03-11T04:22:45.520Z,-1.3
2023-03-11T04:24:47.954Z,-1.1
2023-03-11T04:26:47.793Z,-1.2
2023-03-11T04:30:50.160Z,-1.1
2023-03-11T04:32:50.043Z,-1.1
2023-03-11T04:34:49.798Z,-1.2
2023-03-11T04:36:52.222Z,-1
2023-03-11T04:38:52.129Z,-1.1
2023-03-11T04:40:52.000Z,-1.1
2023-03-11T04:42:54.402Z,-1.1
2023-03-11T04:44:54.280Z,-1.1
2023-03-11T04:46:54.233Z,-1.3
2023-03-11T04:48:56.577Z,-1.3
2023-03-11T04:50:56.462Z,-1.3
2023-03-11T04:52:56.343Z,-1.3
2023-03-11T04:54:58.754Z,-1.4
2023-03-11T04:58:58.487Z,-1.4
2023-03-11T05:01:00.911Z,-1.4
2023-03-11T05:03:00.846Z,-1.4
2023-03-11T05:05:00.771Z,-1.6
2023-03-11T05:07:03.084Z,-1.5
2023-03-11T05:11:02.842Z,-1.7
2023-03-11T05:13:05.290Z,-1.7
2023-03-11T05:17:04.999Z,-1.8
2023-03-11T05:19:07.450Z,-1.7
2023-03-11T05:29:09.389Z,-1.8
2023-03-11T05:31:11.846Z,-1.9
2023-03-11T05:33:11.642Z,-2
2023-03-11T05:35:11.521Z,-2.1
2023-03-11T05:37:13.915Z,-2.1
2023-03-11T05:39:13.814Z,-2.1
2023-03-11T05:41:13.689Z,-2.2
2023-03-11T05:43:16.107Z,-2.2
2023-03-11T05:45:15.973Z,-2.2
2023-03-11T05:47:15.826Z,-2.1
2023-03-11T05:49:18.269Z,-2.3
2023-03-11T05:53:18.001Z,-2.2
2023-03-11T05:55:20.444Z,-2.2
2023-03-11T05:57:20.311Z,-2.3
2023-03-11T05:59:20.173Z,-2.1
2023-03-11T06:01:22.583Z,-2.2
2023-03-11T06:03:22.497Z,-2.2
2023-03-11T06:05:22.444Z,-2.2
2023-03-11T06:09:24.621Z,-2.3
2023-03-11T06:11:24.518Z,-2.3
2023-03-11T06:13:26.941Z,-2.2
2023-03-11T06:15:26.816Z,-2.2
2023-03-11T06:17:28.690Z,-2.1
2023-03-11T06:30:17.444Z,-1.8
2023-03-11T06:36:25.468Z,-1.7
2023-03-11T06:38:27.895Z,-1.8
2023-03-11T06:40:27.729Z,-1.7
2023-03-11T06:42:27.594Z,-1.7
2023-03-11T06:44:30.007Z,-1.8
2023-03-11T06:46:29.909Z,-1.7
2023-03-11T06:48:29.755Z,-1.8
2023-03-11T06:50:32.211Z,-1.8
2023-03-11T06:54:31.922Z,-1.8
2023-03-11T06:56:34.359Z,-1.7
2023-03-11T06:58:34.228Z,-1.6
2023-03-11T07:04:36.382Z,-1.4
2023-03-11T07:06:36.297Z,-1.3
2023-03-11T07:13:42.151Z,-1
2023-03-11T07:15:42.154Z,-1
2023-03-11T07:17:44.425Z,-0.9
2023-03-11T07:19:44.314Z,-0.6
2023-03-11T07:21:44.178Z,-0.3
2023-03-11T07:28:50.075Z,0
2023-03-11T07:30:49.931Z,0.4
2023-03-11T07:32:52.402Z,0.5
2023-03-11T07:34:52.280Z,1
2023-03-11T07:36:52.081Z,1.2
2023-03-11T07:38:54.503Z,1.2
2023-03-11T07:40:54.397Z,1.3
2023-03-11T07:42:54.258Z,1.7
2023-03-11T07:50:58.844Z,2.2
2023-03-11T07:52:58.721Z,2.6
2023-03-11T07:54:58.588Z,3.1
2023-03-11T07:57:20.874Z,3.8
2023-03-11T07:59:20.752Z,4.2
2023-03-11T08:01:20.614Z,5
2023-03-11T08:03:24.045Z,5
2023-03-11T08:05:23.892Z,4.7
2023-03-11T08:07:23.727Z,4.5
2023-03-11T08:21:26.351Z,4.5
2023-03-11T08:23:26.195Z,4.5
2023-03-11T08:25:26.088Z,5.4
2023-03-11T08:27:25.940Z,5.8
2023-03-11T08:35:28.793Z,6
2023-03-11T08:43:28.053Z,4.5
2023-03-11T08:45:31.388Z,3.9
2023-03-11T08:47:31.218Z,4.2
2023-03-11T08:49:31.043Z,4.1
2023-03-11T08:50:38.743Z,4.3
2023-03-11T08:52:32.541Z,4.3
2023-03-11T08:54:32.397Z,3.8
2023-03-11T08:56:32.225Z,5
2023-03-11T08:58:35.538Z,5.2
2023-03-11T09:00:35.458Z,5.6
2023-03-11T09:02:35.132Z,4.3
2023-03-11T09:04:34.886Z,4.3
2023-03-11T09:06:34.612Z,4.4
2023-03-11T09:10:34.251Z,4.5
2023-03-11T09:12:37.462Z,6.5
2023-03-11T09:22:36.524Z,6.3
2023-03-11T09:28:39.190Z,7.1
2023-03-11T09:30:38.912Z,7.5
2023-03-11T09:32:38.625Z,6.1
2023-03-11T09:34:38.329Z,6.4
2023-03-11T09:40:40.932Z,6.5
2023-03-11T09:42:40.620Z,6.3
2023-03-11T09:44:40.320Z,6.3
2023-03-11T09:45:41.903Z,6.6
2023-03-11T09:47:41.547Z,8
2023-03-11T09:49:41.242Z,8.8
2023-03-11T09:53:43.986Z,8.1
2023-03-11T09:55:43.791Z,8.3
2023-03-11T09:57:43.295Z,7.9
2023-03-11T09:59:42.966Z,8.8
2023-03-11T10:01:42.756Z,8.4
2023-03-11T10:03:42.235Z,8.6
2023-03-11T10:05:41.846Z,8.6
2023-03-11T10:07:44.906Z,8.1
2023-03-11T10:09:44.478Z,8.7
2023-03-11T10:11:44.138Z,8.3
2023-03-11T10:17:42.907Z,9
2023-03-11T10:19:42.518Z,9.6
2023-03-11T10:25:44.675Z,10.1
2023-03-11T10:27:44.256Z,10.2
2023-03-11T10:29:43.837Z,10.1
2023-03-11T10:31:43.452Z,9.2
2023-03-11T10:33:42.976Z,8.3
2023-03-11T10:39:45.115Z,7.7
2023-03-11T10:40:46.662Z,7.1
2023-03-11T10:42:46.234Z,6.8
2023-03-11T10:44:45.839Z,6.4
2023-03-11T10:46:45.427Z,6
2023-03-11T10:48:48.520Z,6.3
2023-03-11T10:50:48.128Z,6.6
2023-03-11T10:52:47.769Z,6.9
2023-03-11T10:54:47.397Z,7.3
2023-03-11T10:56:47.063Z,7.2
2023-03-11T10:58:46.708Z,7
2023-03-11T11:00:46.450Z,7.3
2023-03-11T11:02:49.388Z,7.6
2023-03-11T11:04:49.054Z,7.3
2023-03-11T11:06:48.732Z,7.4
2023-03-11T11:08:48.407Z,7.3
2023-03-11T11:10:49.635Z,6.7
2023-03-11T11:16:52.085Z,6.9
2023-03-11T11:18:51.694Z,7.1
2023-03-11T11:20:51.341Z,7.4
2023-03-11T11:22:51.018Z,8.3
2023-03-11T11:24:50.721Z,8.7
2023-03-11T11:28:49.985Z,9.2
2023-03-11T11:32:52.735Z,9.9
2023-03-11T11:37:14.085Z,8.4
2023-03-11T11:39:13.689Z,8.5
2023-03-11T11:49:15.268Z,8.2
2023-03-11T11:53:14.484Z,9.1
2023-03-11T11:55:14.144Z,8.4
2023-03-11T12:01:16.344Z,7.6
2023-03-11T12:07:15.220Z,8.3
2023-03-11T12:09:14.862Z,7.9
2023-03-11T12:11:17.851Z,9
2023-03-11T12:13:17.451Z,9.5
2023-03-11T12:19:16.286Z,8.5
2023-03-11T12:21:15.880Z,8.5
2023-03-11T12:23:15.495Z,9.1
2023-03-11T12:30:20.077Z,9.9
2023-03-11T12:32:20.286Z,10.1
2023-03-11T12:34:19.857Z,11
2023-03-11T12:36:19.441Z,10.6
2023-03-11T12:38:22.434Z,8.7
2023-03-11T12:40:22.002Z,8.8
2023-03-11T12:42:21.584Z,10.3
2023-03-11T12:44:21.160Z,9.9
2023-03-11T12:46:20.770Z,10.2
2023-03-11T12:48:20.301Z,10.2
2023-03-11T12:50:19.877Z,10.2
2023-03-11T12:52:22.978Z,9.9
2023-03-11T12:54:22.381Z,10.3
2023-03-11T12:56:21.992Z,11.3
2023-03-11T12:58:23.766Z,11.3
2023-03-11T13:00:21.132Z,12.2
2023-03-11T13:02:20.671Z,12.3
2023-03-11T13:04:20.248Z,11.8
2023-03-11T13:06:23.245Z,11.3
2023-03-11T13:08:22.805Z,11.2
2023-03-11T13:10:22.349Z,10.5
2023-03-11T13:12:21.886Z,10.8
2023-03-11T13:16:21.069Z,11.8
2023-03-11T13:18:20.562Z,11.4
2023-03-11T13:20:25.725Z,10.1
2023-03-11T13:22:23.086Z,8.7
2023-03-11T13:24:22.710Z,8.1
2023-03-11T13:27:23.770Z,11.3
2023-03-11T13:29:23.349Z,11.4
2023-03-11T13:31:23.050Z,12.2
2023-03-11T13:33:25.921Z,11.6
2023-03-11T13:35:25.582Z,11.2
2023-03-11T13:43:23.915Z,13.5
2023-03-11T13:51:25.726Z,11.1
2023-03-11T13:53:25.309Z,8.6
2023-03-11T13:55:24.925Z,7.4
2023-03-11T13:57:24.525Z,8
2023-03-11T13:59:24.135Z,8
2023-03-11T14:01:27.247Z,12.2
2023-03-11T14:03:26.812Z,13.1
2023-03-11T14:05:26.431Z,14.5
2023-03-11T14:07:26.215Z,13.8
2023-03-11T14:09:25.703Z,12.7
2023-03-11T14:13:24.964Z,14.2
2023-03-11T14:17:27.601Z,13.5
2023-03-11T14:19:27.245Z,12.6
2023-03-11T14:28:30.653Z,12.4
2023-03-11T14:30:30.277Z,12.2
2023-03-11T14:38:28.804Z,9.5
2023-03-11T14:40:28.432Z,8
2023-03-11T14:42:31.445Z,9.3
2023-03-11T14:44:31.112Z,8.9
2023-03-11T14:46:30.764Z,8.8
2023-03-11T14:48:30.429Z,8.8
2023-03-11T14:50:30.111Z,9.2
2023-03-11T14:56:32.519Z,10.1
2023-03-11T14:58:32.161Z,10
2023-03-11T15:00:31.843Z,9.5
2023-03-11T15:04:31.187Z,9.3
2023-03-11T15:06:30.893Z,9.4
2023-03-11T15:08:30.611Z,9.9
2023-03-11T15:10:33.686Z,10.1
2023-03-11T15:12:33.367Z,10.4
2023-03-11T15:14:33.088Z,9.6
2023-03-11T15:16:54.848Z,9
2023-03-11T15:18:54.508Z,9
2023-03-11T15:20:54.149Z,9.1
2023-03-11T15:22:57.685Z,9.4
2023-03-11T15:28:56.348Z,9.4
2023-03-11T15:32:55.840Z,8.9
2023-03-11T15:34:55.449Z,8.5
2023-03-11T15:36:58.561Z,7.8
2023-03-11T15:44:57.382Z,9.2
2023-03-11T15:46:57.067Z,9.5
2023-03-11T15:48:56.786Z,9.4
2023-03-11T15:50:59.869Z,9.8
2023-03-11T15:52:59.579Z,10
2023-03-11T15:56:59.019Z,9.8
2023-03-11T15:58:58.798Z,10
2023-03-11T16:00:58.495Z,9.8
2023-03-11T16:02:58.199Z,10.2
2023-03-11T16:05:01.459Z,9.3
2023-03-11T16:07:07.793Z,9.2
2023-03-11T16:09:00.703Z,8.9
2023-03-11T16:10:04.357Z,9.6
2023-03-11T16:12:02.000Z,9.7
2023-03-11T16:14:01.689Z,9.7
2023-03-11T16:16:04.154Z,8.4
2023-03-11T16:24:03.783Z,6.7
2023-03-11T16:26:03.403Z,6.6
2023-03-11T16:28:03.139Z,6.4
2023-03-11T16:32:05.928Z,6
2023-03-11T16:34:05.680Z,5.9
2023-03-11T16:36:05.598Z,5.9
2023-03-11T16:40:05.014Z,5.8
2023-03-11T16:42:04.790Z,5.6
2023-03-11T16:44:04.583Z,5.5
2023-03-11T16:46:07.903Z,5.4
2023-03-11T16:56:06.830Z,5.1
2023-03-11T17:00:11.476Z,5
2023-03-11T17:02:11.220Z,5
2023-03-11T17:04:10.947Z,4.9
2023-03-11T17:05:12.716Z,4.8
2023-03-11T17:07:12.461Z,4.8
2023-03-11T17:09:12.300Z,4.8
2023-03-11T17:11:12.149Z,4.6
2023-03-11T17:13:18.471Z,4.6
2023-03-11T17:15:15.348Z,4.5
2023-03-11T17:19:15.016Z,4.3
2023-03-11T17:23:14.653Z,4.2
2023-03-11T17:25:14.531Z,4.1
2023-03-11T17:27:17.848Z,4
2023-03-11T17:31:17.668Z,4
2023-03-11T17:33:17.447Z,4
2023-03-11T17:35:17.306Z,3.9
2023-03-11T17:37:17.186Z,3.8
2023-03-11T17:39:17.071Z,3.7
2023-03-11T17:41:20.410Z,3.5
2023-03-11T17:43:20.269Z,3.4
2023-03-11T17:45:20.133Z,3.4
2023-03-11T17:47:20.514Z,3.3
2023-03-11T17:53:19.634Z,3
2023-03-11T17:55:22.981Z,3
2023-03-11T17:57:22.867Z,3
2023-03-11T17:59:22.756Z,3
2023-03-11T18:00:24.471Z,2.8
2023-03-11T18:04:24.228Z,2.7
2023-03-11T18:06:24.047Z,2.6
2023-03-11T18:10:27.292Z,2.2
2023-03-11T18:16:27.007Z,2
2023-03-11T18:18:26.767Z,1.9
2023-03-11T18:20:26.626Z,1.8
2023-03-11T18:22:30.039Z,1.6
2023-03-11T18:26:29.740Z,1.6
2023-03-11T18:28:29.625Z,1.7
2023-03-11T18:30:29.494Z,1.8
2023-03-11T18:36:32.642Z,1.7
2023-03-11T18:38:32.535Z,1.8
2023-03-11T18:40:32.397Z,1.9
2023-03-11T18:42:32.344Z,1.9
2023-03-11T18:44:32.178Z,2.1
2023-03-11T18:46:32.061Z,1.9
2023-03-11T18:48:31.951Z,1.9
2023-03-11T18:50:35.328Z,1.9
2023-03-11T18:54:35.103Z,1.9
2023-03-11T19:00:57.145Z,1.7
2023-03-11T19:03:00.490Z,1.5
2023-03-11T19:05:00.445Z,1.4
2023-03-11T19:07:00.253Z,1.4
2023-03-11T19:09:00.145Z,1.4
2023-03-11T19:10:59.997Z,1.3
2023-03-11T19:14:59.768Z,1.3
2023-03-11T19:19:03.039Z,1.3
2023-03-11T19:21:02.932Z,1.3
2023-03-11T19:23:02.796Z,1.2
2023-03-11T19:25:02.672Z,1.2
2023-03-11T19:27:02.588Z,1.2
2023-03-11T19:31:05.946Z,1.1
2023-03-11T19:33:05.694Z,1.1
2023-03-11T19:35:05.863Z,1
2023-03-11T19:37:05.503Z,1
2023-03-11T19:39:05.336Z,1
2023-03-11T19:41:05.274Z,1
2023-03-11T19:43:05.934Z,0.9
2023-03-11T19:50:09.988Z,0.8
2023-03-11T20:00:12.972Z,0.6
2023-03-11T20:04:12.829Z,0.5
2023-03-11T20:06:12.657Z,0.4
2023-03-11T20:08:12.546Z,0.3
2023-03-11T20:12:15.830Z,0.3
2023-03-11T20:14:15.724Z,0.3
2023-03-11T20:20:15.365Z,0.2
2023-03-11T20:22:15.304Z,0.2
2023-03-11T20:24:15.175Z,0.1
2023-03-11T20:26:18.552Z,0.1
2023-03-11T20:28:18.545Z,0.1
2023-03-11T20:30:18.357Z,0.1
2023-03-11T20:32:18.255Z,0
2023-03-11T20:34:18.169Z,-0.1
2023-03-11T20:36:18.065Z,-0.1
2023-03-11T20:38:17.907Z,-0.2
2023-03-11T20:40:21.267Z,-0.3
2023-03-11T20:42:21.184Z,-0.3
2023-03-11T20:44:21.043Z,-0.4
2023-03-11T20:45:22.870Z,-0.4
2023-03-11T20:49:22.500Z,-0.6
2023-03-11T20:53:25.839Z,-0.6
2023-03-11T20:55:25.763Z,-0.7
2023-03-11T20:57:25.718Z,-0.8
2023-03-11T20:59:25.547Z,-0.8
2023-03-11T21:01:25.423Z,-0.8
2023-03-11T21:03:25.388Z,-0.8
2023-03-11T21:05:25.200Z,-0.8
2023-03-11T21:07:28.644Z,-0.8
2023-03-11T21:09:28.421Z,-0.8
2023-03-11T21:13:28.213Z,-0.9
2023-03-11T21:15:28.092Z,-0.9
2023-03-11T21:17:27.977Z,-0.8
2023-03-11T21:21:31.270Z,-0.8
2023-03-11T22:08:41.042Z,-0.4
2023-03-11T22:10:41.004Z,-0.4
2023-03-11T22:12:40.775Z,-0.4
2023-03-11T22:14:40.761Z,-0.4
2023-03-11T22:16:44.034Z,-0.3
2023-03-11T22:20:44.033Z,-0.3
2023-03-11T22:22:43.666Z,-0.4
2023-03-11T22:24:43.535Z,-0.3
2023-03-11T22:26:43.439Z,-0.3
2023-03-11T22:32:46.654Z,-0.3
2023-03-11T22:34:46.502Z,-0.3
2023-03-11T22:43:45.404Z,-0.4
2023-03-11T22:45:47.879Z,-0.4
2023-03-11T22:47:47.708Z,-0.3
2023-03-11T22:49:47.607Z,-0.4
2023-03-11T22:51:50.020Z,-0.3
2023-03-11T22:53:49.937Z,-0.3
2023-03-11T22:55:49.869Z,-0.3
2023-03-11T22:57:52.264Z,-0.3
2023-03-11T22:59:52.144Z,-0.3
2023-03-11T23:01:52.037Z,-0.3
2023-03-11T23:06:54.782Z,-0.2
2023-03-11T23:08:54.709Z,-0.1
2023-03-11T23:10:54.538Z,-0.1
2023-03-11T23:12:57.022Z,-0.1
2023-03-11T23:14:56.864Z,-0.1
2023-03-11T23:16:56.828Z,-0.1
2023-03-11T23:26:01.521Z,0
2023-03-11T23:28:03.965Z,0
2023-03-11T23:30:03.875Z,0
2023-03-11T23:32:03.741Z,0
2023-03-11T23:39:07.533Z,0
2023-03-11T23:41:07.422Z,0
2023-03-11T23:43:09.871Z,-0.1
2023-03-11T23:47:09.664Z,-0.2
2023-03-11T23:51:11.948Z,-0.2
2023-03-11T23:53:11.836Z,-0.2
2023-03-11T23:55:14.294Z,-0.2
2023-03-11T23:57:14.187Z,-0.3
2023-03-11T23:59:14.059Z,-0.3
